createdAt,value
2024-02-14T00:00:35.844Z,4.79
2024-02-14T00:03:04.752Z,4.78
2024-02-14T00:05:33.263Z,4.78
2024-02-14T00:08:01.670Z,4.76
2024-02-14T00:10:30.088Z,4.74
2024-02-14T00:12:59.976Z,4.73
2024-02-14T00:15:28.395Z,4.74
2024-02-14T00:17:56.989Z,4.73
2024-02-14T00:20:25.890Z,4.71
2024-02-14T00:22:54.432Z,4.67
2024-02-14T00:25:22.777Z,4.66
2024-02-14T00:27:51.681Z,4.63
2024-02-14T00:30:24.213Z,4.62
2024-02-14T00:32:52.886Z,4.62
2024-02-14T00:35:21.744Z,4.62
2024-02-14T00:37:50.533Z,4.61
2024-02-14T00:40:19.122Z,4.60
2024-02-14T00:42:47.478Z,4.63
2024-02-14T00:45:16.184Z,4.65
2024-02-14T00:47:46.033Z,4.67
2024-02-14T00:50:15.370Z,4.66
2024-02-14T00:52:44.387Z,4.66
2024-02-14T00:55:13.200Z,4.66
2024-02-14T00:57:41.586Z,4.68
2024-02-14T01:00:10.985Z,4.67
2024-02-14T01:02:39.468Z,4.65
2024-02-14T01:05:10.456Z,4.62
2024-02-14T01:07:38.974Z,4.57
2024-02-14T01:10:08.886Z,4.54
2024-02-14T01:12:37.277Z,4.48
2024-02-14T01:15:06.638Z,4.42
2024-02-14T01:17:37.572Z,4.32
2024-02-14T01:20:07.165Z,4.31
2024-02-14T01:22:37.007Z,4.27
2024-02-14T01:25:07.506Z,4.22
2024-02-14T01:27:35.886Z,4.21
2024-02-14T01:30:05.964Z,4.22
2024-02-14T01:32:34.656Z,4.12
2024-02-14T01:35:03.209Z,4.07
2024-02-14T01:37:31.893Z,4.02
2024-02-14T01:40:01.717Z,4.07
2024-02-14T01:42:30.068Z,4.08
2024-02-14T01:44:58.555Z,4.05
2024-02-14T01:47:27.306Z,4.07
2024-02-14T01:49:55.735Z,4.13
2024-02-14T01:52:24.569Z,4.17
2024-02-14T01:54:54.184Z,4.20
2024-02-14T01:57:24.641Z,4.24
2024-02-14T01:59:55.885Z,4.24
2024-02-14T02:02:24.529Z,4.24
2024-02-14T02:04:52.972Z,4.26
2024-02-14T02:07:21.862Z,4.22
2024-02-14T02:09:50.221Z,4.17
2024-02-14T02:12:18.800Z,4.09
2024-02-14T02:14:48.575Z,4.06
2024-02-14T02:17:18.865Z,4.11
2024-02-14T02:19:47.386Z,4.19
2024-02-14T02:22:15.908Z,4.27
2024-02-14T02:24:46.507Z,4.37
2024-02-14T02:27:17.684Z,4.41
2024-02-14T02:29:47.276Z,4.45
2024-02-14T02:32:17.475Z,4.48
2024-02-14T02:34:46.546Z,4.50
2024-02-14T02:37:14.985Z,4.55
2024-02-14T02:39:43.345Z,4.56
2024-02-14T02:42:13.113Z,4.58
2024-02-14T02:44:41.570Z,4.59
2024-02-14T02:47:12.079Z,4.59
2024-02-14T02:49:40.778Z,4.60
2024-02-14T02:52:09.210Z,4.61
2024-02-14T02:54:37.566Z,4.62
2024-02-14T02:57:06.277Z,4.62
2024-02-14T02:59:36.661Z,4.64
2024-02-14T03:02:09.549Z,4.66
2024-02-14T03:04:48.764Z,4.67
2024-02-14T03:07:21.974Z,4.68
2024-02-14T03:09:50.516Z,4.70
2024-02-14T03:12:20.059Z,4.71
2024-02-14T03:14:50.666Z,4.72
2024-02-14T03:17:19.135Z,4.72
2024-02-14T03:19:49.446Z,4.73
2024-02-14T03:22:20.027Z,4.74
2024-02-14T03:24:49.005Z,4.75
2024-02-14T03:27:18.411Z,4.75
2024-02-14T03:29:48.651Z,4.74
2024-02-14T03:32:18.664Z,4.72
2024-02-14T03:34:47.135Z,4.72
2024-02-14T03:37:16.126Z,4.71
2024-02-14T03:39:44.482Z,4.70
2024-02-14T03:42:12.887Z,4.69
2024-02-14T03:44:41.931Z,4.64
2024-02-14T03:47:10.404Z,4.61
2024-02-14T03:49:41.994Z,4.61
2024-02-14T03:52:11.712Z,4.61
2024-02-14T03:54:40.890Z,4.59
2024-02-14T03:57:10.031Z,4.57
2024-02-14T03:59:40.337Z,4.57
2024-02-14T04:02:11.000Z,4.56
2024-02-14T04:04:45.003Z,4.57
2024-02-14T04:07:13.472Z,4.53
2024-02-14T04:09:41.829Z,4.51
2024-02-14T04:12:11.806Z,4.48
2024-02-14T04:14:40.335Z,4.46
2024-02-14T04:17:09.760Z,4.44
2024-02-14T04:19:38.294Z,4.43
2024-02-14T04:22:08.960Z,4.42
2024-02-14T04:24:37.436Z,4.41
2024-02-14T04:27:06.396Z,4.42
2024-02-14T04:29:36.421Z,4.43
2024-02-14T04:32:10.941Z,4.42
2024-02-14T04:34:40.784Z,4.41
2024-02-14T04:37:13.645Z,4.42
2024-02-14T04:39:42.078Z,4.39
2024-02-14T04:42:10.560Z,4.38
2024-02-14T04:44:40.730Z,4.36
2024-02-14T04:47:10.704Z,4.34
2024-02-14T04:49:39.193Z,4.32
2024-02-14T04:52:09.031Z,4.29
2024-02-14T04:54:38.796Z,4.27
2024-02-14T04:57:07.349Z,4.24
2024-02-14T04:59:35.861Z,4.22
2024-02-14T05:02:04.414Z,4.20
2024-02-14T05:04:32.900Z,4.19
2024-02-14T05:07:01.501Z,4.17
2024-02-14T05:09:29.984Z,4.17
2024-02-14T05:11:59.793Z,4.15
2024-02-14T05:14:32.318Z,4.12
2024-02-14T05:17:02.700Z,4.12
2024-02-14T05:19:31.688Z,4.11
2024-02-14T05:22:00.192Z,4.09
2024-02-14T05:24:30.215Z,4.06
2024-02-14T05:27:00.031Z,4.04
2024-02-14T05:29:28.496Z,4.04
2024-02-14T05:31:57.398Z,4.02
2024-02-14T05:34:25.991Z,4.00
2024-02-14T05:36:54.606Z,4.01
2024-02-14T05:39:23.257Z,4.04
2024-02-14T05:41:52.256Z,4.07
2024-02-14T05:44:23.608Z,4.11
2024-02-14T05:46:51.991Z,4.14
2024-02-14T05:49:20.559Z,4.16
2024-02-14T05:51:48.988Z,4.18
2024-02-14T05:54:17.404Z,4.19
2024-02-14T05:56:45.944Z,4.19
2024-02-14T05:59:14.325Z,4.18
2024-02-14T06:01:44.129Z,4.18
2024-02-14T06:04:12.542Z,4.18
2024-02-14T06:06:40.945Z,4.19
2024-02-14T06:09:12.806Z,4.19
2024-02-14T06:11:41.294Z,4.18
2024-02-14T06:14:10.110Z,4.17
2024-02-14T06:16:39.777Z,4.17
2024-02-14T06:19:10.678Z,4.17
2024-02-14T06:21:39.447Z,4.18
2024-02-14T06:24:08.235Z,4.19
2024-02-14T06:26:36.693Z,4.21
2024-02-14T06:29:07.511Z,4.25
2024-02-14T06:31:36.130Z,4.27
2024-02-14T06:34:04.868Z,4.30
2024-02-14T06:36:35.008Z,4.32
2024-02-14T06:39:03.460Z,4.35
2024-02-14T06:41:32.544Z,4.38
2024-02-14T06:44:01.358Z,4.40
2024-02-14T06:46:29.935Z,4.43
2024-02-14T06:48:58.790Z,4.44
2024-02-14T06:51:27.537Z,4.47
2024-02-14T06:53:57.318Z,4.49
2024-02-14T06:56:25.895Z,4.51
2024-02-14T06:59:00.745Z,4.54
2024-02-14T07:01:30.393Z,4.59
2024-02-14T07:03:59.292Z,4.62
2024-02-14T07:06:27.857Z,4.65
2024-02-14T07:08:57.788Z,4.66
2024-02-14T07:11:26.242Z,4.69
2024-02-14T07:13:54.752Z,4.69
2024-02-14T07:16:23.178Z,4.70
2024-02-14T07:18:52.314Z,4.73
2024-02-14T07:21:20.930Z,4.74
2024-02-14T07:23:49.583Z,4.74
2024-02-14T07:26:19.307Z,4.75
2024-02-14T07:28:47.717Z,4.78
2024-02-14T07:31:16.082Z,4.81
2024-02-14T07:33:45.837Z,4.82
2024-02-14T07:36:14.389Z,4.83
2024-02-14T07:38:43.730Z,4.87
2024-02-14T07:41:12.200Z,4.88
2024-02-14T07:43:42.199Z,4.88
2024-02-14T07:46:10.936Z,4.90
2024-02-14T07:48:39.457Z,4.93
2024-02-14T07:51:09.665Z,4.97
2024-02-14T07:53:38.251Z,4.99
2024-02-14T07:56:07.327Z,5.01
2024-02-14T07:58:35.730Z,5.03
2024-02-14T08:01:06.190Z,5.08
2024-02-14T08:03:34.734Z,5.12
2024-02-14T08:06:03.340Z,5.16
2024-02-14T08:08:32.642Z,5.20
2024-02-14T08:11:01.184Z,5.23
2024-02-14T08:13:30.284Z,5.28
2024-02-14T08:15:59.389Z,5.30
2024-02-14T08:18:29.573Z,5.33
2024-02-14T08:20:58.221Z,5.37
2024-02-14T08:23:26.684Z,5.41
2024-02-14T08:25:55.067Z,5.42
2024-02-14T08:28:23.472Z,5.46
2024-02-14T08:30:52.578Z,5.51
2024-02-14T08:33:21.176Z,5.55
2024-02-14T08:35:51.110Z,5.58
2024-02-14T08:38:19.529Z,5.61
2024-02-14T08:40:47.912Z,5.62
2024-02-14T08:43:16.838Z,5.63
2024-02-14T08:45:45.427Z,5.65
2024-02-14T08:48:13.965Z,5.65
2024-02-14T08:50:43.322Z,5.67
2024-02-14T08:53:14.631Z,5.71
2024-02-14T08:55:43.348Z,5.75
2024-02-14T08:58:11.858Z,5.76
2024-02-14T09:00:41.908Z,5.78
2024-02-14T09:03:10.598Z,5.80
2024-02-14T09:05:40.368Z,5.82
2024-02-14T09:08:09.054Z,5.84
2024-02-14T09:10:38.853Z,5.84
2024-02-14T09:13:08.751Z,5.84
2024-02-14T09:15:37.188Z,5.83
2024-02-14T09:18:06.110Z,5.82
2024-02-14T09:20:34.887Z,5.81
2024-02-14T09:23:03.377Z,5.80
2024-02-14T09:25:31.908Z,5.81
2024-02-14T09:28:01.907Z,5.82
2024-02-14T09:30:38.393Z,5.81
2024-02-14T09:33:07.889Z,5.81
2024-02-14T09:35:38.977Z,5.84
2024-02-14T09:38:07.556Z,5.85
2024-02-14T09:40:36.738Z,5.86
2024-02-14T09:43:13.028Z,5.88
2024-02-14T09:45:43.486Z,5.91
2024-02-14T09:48:12.294Z,5.93
2024-02-14T09:50:41.588Z,5.97
2024-02-14T09:53:12.111Z,5.99
2024-02-14T09:55:41.263Z,6.04
2024-02-14T09:58:11.646Z,6.11
2024-02-14T10:00:41.861Z,6.18
2024-02-14T10:03:10.776Z,6.25
2024-02-14T10:05:39.328Z,6.35
2024-02-14T10:08:10.092Z,6.44
2024-02-14T10:10:39.766Z,6.52
2024-02-14T10:13:08.483Z,6.57
2024-02-14T10:15:38.268Z,6.63
2024-02-14T10:18:07.954Z,6.68
2024-02-14T10:20:41.882Z,6.78
2024-02-14T10:23:10.841Z,6.87
2024-02-14T10:25:39.659Z,6.93
2024-02-14T10:28:09.833Z,7.00
2024-02-14T10:30:41.743Z,7.04
2024-02-14T10:33:17.554Z,7.07
2024-02-14T10:35:57.511Z,7.07
2024-02-14T10:38:29.665Z,7.06
2024-02-14T10:41:01.301Z,7.07
2024-02-14T10:43:29.786Z,7.10
2024-02-14T10:46:02.533Z,7.11
2024-02-14T10:48:37.382Z,7.12
2024-02-14T10:51:08.419Z,7.17
2024-02-14T10:53:37.627Z,7.24
2024-02-14T10:56:07.315Z,7.37
2024-02-14T10:58:37.921Z,7.44
2024-02-14T11:01:08.889Z,7.53
2024-02-14T11:03:38.039Z,7.57
2024-02-14T11:06:07.454Z,7.61
2024-02-14T11:08:36.601Z,7.68
2024-02-14T11:11:05.914Z,7.77
2024-02-14T11:13:34.394Z,7.88
2024-02-14T11:16:03.577Z,8.01
2024-02-14T11:18:34.781Z,8.13
2024-02-14T11:21:06.581Z,8.25
2024-02-14T11:23:35.263Z,8.36
2024-02-14T11:26:05.479Z,8.41
2024-02-14T11:28:40.218Z,8.42
2024-02-14T11:31:11.276Z,8.45
2024-02-14T11:33:41.235Z,8.49
2024-02-14T11:36:12.429Z,8.53
2024-02-14T11:38:43.073Z,8.57
2024-02-14T11:41:14.415Z,8.60
2024-02-14T11:43:53.286Z,8.65
2024-02-14T11:46:21.841Z,8.73
2024-02-14T11:48:54.213Z,8.77
2024-02-14T11:51:22.809Z,8.80
2024-02-14T11:53:51.358Z,8.84
2024-02-14T11:56:19.953Z,8.85
2024-02-14T11:58:51.144Z,8.86
2024-02-14T12:01:20.762Z,8.87
2024-02-14T12:03:49.271Z,8.87
2024-02-14T12:06:19.365Z,8.88
2024-02-14T12:08:48.051Z,8.91
2024-02-14T12:11:16.481Z,8.93
2024-02-14T12:13:47.955Z,8.98
2024-02-14T12:16:17.083Z,9.01
2024-02-14T12:18:45.682Z,9.03
2024-02-14T12:21:14.838Z,9.05
2024-02-14T12:23:44.801Z,9.07
2024-02-14T12:26:18.391Z,9.11
2024-02-14T12:28:49.353Z,9.14
2024-02-14T12:31:24.348Z,9.16
2024-02-14T12:33:55.718Z,9.21
2024-02-14T12:36:24.514Z,9.26
2024-02-14T12:38:55.117Z,9.35
2024-02-14T12:41:24.529Z,9.42
2024-02-14T12:43:53.005Z,9.51
2024-02-14T12:46:21.427Z,9.61
2024-02-14T12:48:50.289Z,9.71
2024-02-14T12:51:19.241Z,9.74
2024-02-14T12:53:47.739Z,9.72
2024-02-14T12:56:17.560Z,9.65
2024-02-14T12:58:47.752Z,9.62
2024-02-14T13:01:16.198Z,9.60
2024-02-14T13:03:44.735Z,9.58
2024-02-14T13:06:15.745Z,9.58
2024-02-14T13:08:44.339Z,9.57
2024-02-14T13:11:12.739Z,9.61
2024-02-14T13:13:43.775Z,9.61
2024-02-14T13:16:12.335Z,9.63
2024-02-14T13:18:41.416Z,9.67
2024-02-14T13:21:11.093Z,9.73
2024-02-14T13:23:41.763Z,9.73
2024-02-14T13:26:10.299Z,9.74
2024-02-14T13:28:38.703Z,9.82
2024-02-14T13:31:08.556Z,10.08
2024-02-14T13:33:37.127Z,10.40
2024-02-14T13:36:06.875Z,10.71
2024-02-14T13:38:36.197Z,10.75
2024-02-14T13:41:04.739Z,10.81
2024-02-14T13:43:33.253Z,11.05
2024-02-14T13:46:01.742Z,11.14
2024-02-14T13:48:31.662Z,11.10
2024-02-14T13:51:00.234Z,11.00
2024-02-14T13:53:28.651Z,10.87
2024-02-14T13:55:57.336Z,10.76
2024-02-14T13:58:25.857Z,10.70
2024-02-14T14:00:54.718Z,10.69
2024-02-14T14:03:23.144Z,10.70
2024-02-14T14:05:53.145Z,10.72
2024-02-14T14:08:21.607Z,10.73
2024-02-14T14:10:50.100Z,10.73
2024-02-14T14:13:18.713Z,10.72
2024-02-14T14:15:47.179Z,10.71
2024-02-14T14:18:15.683Z,10.67
2024-02-14T14:20:44.216Z,10.61
2024-02-14T14:23:14.229Z,10.55
2024-02-14T14:25:42.919Z,10.51
2024-02-14T14:28:11.805Z,10.48
2024-02-14T14:30:40.646Z,10.46
2024-02-14T14:33:09.933Z,10.42
2024-02-14T14:35:38.808Z,10.39
2024-02-14T14:38:07.631Z,10.33
2024-02-14T14:40:38.354Z,10.25
2024-02-14T14:43:08.361Z,10.27
2024-02-14T14:45:39.445Z,10.32
2024-02-14T14:48:09.998Z,10.34
2024-02-14T14:50:38.903Z,10.46
2024-02-14T14:53:08.089Z,10.55
2024-02-14T14:55:57.256Z,10.69
2024-02-14T14:58:28.867Z,11.09
2024-02-14T15:00:59.992Z,11.53
2024-02-14T15:03:29.700Z,11.84
2024-02-14T15:05:59.733Z,11.99
2024-02-14T15:08:29.538Z,12.04
2024-02-14T15:10:59.679Z,12.00
2024-02-14T15:13:28.848Z,11.92
2024-02-14T15:15:58.965Z,11.85
2024-02-14T15:18:27.832Z,11.77
2024-02-14T15:20:56.531Z,11.69
2024-02-14T15:23:25.055Z,11.56
2024-02-14T15:25:55.688Z,11.46
2024-02-14T15:28:27.725Z,11.36
2024-02-14T15:31:13.793Z,11.21
2024-02-14T15:33:42.485Z,11.07
2024-02-14T15:36:12.624Z,10.97
2024-02-14T15:38:41.162Z,10.86
2024-02-14T15:41:10.734Z,10.75
2024-02-14T15:43:44.882Z,10.66
2024-02-14T15:46:13.514Z,10.59
2024-02-14T15:48:42.380Z,10.52
2024-02-14T15:51:11.033Z,10.45
2024-02-14T15:53:40.760Z,10.40
2024-02-14T15:56:10.742Z,10.34
2024-02-14T15:58:40.846Z,10.28
2024-02-14T16:01:09.293Z,10.24
2024-02-14T16:03:37.708Z,10.20
2024-02-14T16:06:06.755Z,10.17
2024-02-14T16:08:35.578Z,10.15
2024-02-14T16:11:04.180Z,10.14
2024-02-14T16:13:32.710Z,10.11
2024-02-14T16:16:02.546Z,10.11
2024-02-14T16:18:31.036Z,10.10
2024-02-14T16:21:00.188Z,10.08
2024-02-14T16:23:28.690Z,10.05
2024-02-14T16:25:57.080Z,10.03
2024-02-14T16:28:25.568Z,10.05
2024-02-14T16:30:54.023Z,10.07
2024-02-14T16:33:24.253Z,10.08
2024-02-14T16:35:52.845Z,10.07
2024-02-14T16:38:21.818Z,10.07
2024-02-14T16:40:50.227Z,10.04
2024-02-14T16:43:19.110Z,10.03
2024-02-14T16:45:47.686Z,10.00
2024-02-14T16:48:16.317Z,9.98
2024-02-14T16:50:46.157Z,9.97
2024-02-14T16:53:14.568Z,9.95
2024-02-14T16:55:43.342Z,9.94
2024-02-14T16:58:12.043Z,9.94
2024-02-14T17:00:40.820Z,9.94
2024-02-14T17:03:15.507Z,9.95
2024-02-14T17:05:48.687Z,9.95
2024-02-14T17:08:17.196Z,9.95
2024-02-14T17:10:45.760Z,9.93
2024-02-14T17:13:16.300Z,9.93
2024-02-14T17:15:45.020Z,9.92
2024-02-14T17:18:13.852Z,9.90
2024-02-14T17:20:44.043Z,9.88
2024-02-14T17:23:13.836Z,9.88
2024-02-14T17:25:42.227Z,9.87
2024-02-14T17:28:10.714Z,9.87
2024-02-14T17:30:41.794Z,9.86
2024-02-14T17:33:12.214Z,9.87
2024-02-14T17:35:40.765Z,9.84
2024-02-14T17:38:09.245Z,9.83
2024-02-14T17:40:39.035Z,9.83
2024-02-14T17:43:07.474Z,9.81
2024-02-14T17:45:37.088Z,9.78
2024-02-14T17:48:06.609Z,9.75
2024-02-14T17:50:35.038Z,9.74
2024-02-14T17:53:03.584Z,9.71
2024-02-14T17:55:32.081Z,9.70
2024-02-14T17:58:03.449Z,9.68
2024-02-14T18:00:31.954Z,9.69
2024-02-14T18:03:00.556Z,9.68
2024-02-14T18:05:29.479Z,9.67
2024-02-14T18:07:57.886Z,9.66
2024-02-14T18:10:27.921Z,9.65
2024-02-14T18:12:57.238Z,9.63
2024-02-14T18:15:27.029Z,9.63
2024-02-14T18:17:55.494Z,9.63
2024-02-14T18:20:24.130Z,9.63
2024-02-14T18:22:52.601Z,9.64
2024-02-14T18:25:21.000Z,9.65
2024-02-14T18:27:49.444Z,9.64
2024-02-14T18:30:18.733Z,9.63
2024-02-14T18:32:50.289Z,9.63
2024-02-14T18:35:18.877Z,9.62
2024-02-14T18:37:47.381Z,9.61
2024-02-14T18:40:18.663Z,9.59
2024-02-14T18:42:47.122Z,9.58
2024-02-14T18:45:15.647Z,9.56
2024-02-14T18:47:44.373Z,9.54
2024-02-14T18:50:14.224Z,9.50
2024-02-14T18:52:42.666Z,9.48
2024-02-14T18:55:12.176Z,9.46
2024-02-14T18:57:40.596Z,9.46
2024-02-14T19:00:11.972Z,9.44
2024-02-14T19:02:42.700Z,9.41
2024-02-14T19:05:11.512Z,9.40
2024-02-14T19:07:41.564Z,9.39
2024-02-14T19:10:12.287Z,9.38
2024-02-14T19:12:40.789Z,9.37
2024-02-14T19:15:10.339Z,9.36
2024-02-14T19:17:39.332Z,9.35
2024-02-14T19:20:09.441Z,9.34
2024-02-14T19:22:37.904Z,9.32
2024-02-14T19:25:09.134Z,9.29
2024-02-14T19:27:38.438Z,9.26
2024-02-14T19:30:08.125Z,9.23
2024-02-14T19:32:40.290Z,9.21
2024-02-14T19:35:10.108Z,9.18
2024-02-14T19:37:38.549Z,9.15
2024-02-14T19:40:10.756Z,9.11
2024-02-14T19:42:39.261Z,9.09
2024-02-14T19:45:09.974Z,9.07
2024-02-14T19:47:39.235Z,9.05
2024-02-14T19:50:10.400Z,9.02
2024-02-14T19:52:38.854Z,8.99
2024-02-14T19:55:11.420Z,8.97
2024-02-14T19:57:40.095Z,8.95
2024-02-14T20:00:10.510Z,8.92
2024-02-14T20:02:39.566Z,8.91
2024-02-14T20:05:09.812Z,8.90
2024-02-14T20:07:38.427Z,8.90
2024-02-14T20:10:09.407Z,8.89
2024-02-14T20:12:39.333Z,8.87
2024-02-14T20:15:09.434Z,8.86
2024-02-14T20:17:37.985Z,8.86
2024-02-14T20:20:08.209Z,8.86
2024-02-14T20:22:36.787Z,8.84
2024-02-14T20:25:05.621Z,8.82
2024-02-14T20:27:35.397Z,8.81
2024-02-14T20:30:08.294Z,8.82
2024-02-14T20:32:40.978Z,8.79
2024-02-14T20:35:11.622Z,8.77
2024-02-14T20:37:41.333Z,8.76
2024-02-14T20:40:10.283Z,8.75
2024-02-14T20:42:40.104Z,8.73
2024-02-14T20:45:09.849Z,8.73
2024-02-14T20:47:38.823Z,8.73
2024-02-14T20:50:08.681Z,8.73
2024-02-14T20:52:38.256Z,8.73
2024-02-14T20:55:08.564Z,8.72
2024-02-14T20:57:36.985Z,8.71
2024-02-14T21:00:09.735Z,8.69
2024-02-14T21:02:38.721Z,8.67
2024-02-14T21:05:07.784Z,8.67
2024-02-14T21:07:36.223Z,8.67
2024-02-14T21:10:04.705Z,8.67
2024-02-14T21:12:33.396Z,8.67
2024-02-14T21:15:01.891Z,8.66
2024-02-14T21:17:32.409Z,8.67
2024-02-14T21:20:01.300Z,8.66
2024-02-14T21:22:29.866Z,8.65
2024-02-14T21:24:58.257Z,8.63
2024-02-14T21:27:26.675Z,8.60
2024-02-14T21:29:55.406Z,8.57
2024-02-14T21:32:23.823Z,8.55
2024-02-14T21:34:53.633Z,8.54
2024-02-14T21:37:23.125Z,8.53
2024-02-14T21:39:51.530Z,8.52
2024-02-14T21:42:20.154Z,8.51
2024-02-14T21:44:48.605Z,8.51
2024-02-14T21:47:17.302Z,8.49
2024-02-14T21:49:46.472Z,8.48
2024-02-14T21:52:16.759Z,8.46
2024-02-14T21:54:45.201Z,8.45
2024-02-14T21:57:13.669Z,8.43
2024-02-14T21:59:42.256Z,8.42
2024-02-14T22:02:10.666Z,8.40
2024-02-14T22:04:39.445Z,8.39
2024-02-14T22:07:09.722Z,8.40
2024-02-14T22:09:39.834Z,8.40
2024-02-14T22:12:08.907Z,8.39
2024-02-14T22:14:37.671Z,8.38
2024-02-14T22:17:07.338Z,8.38
2024-02-14T22:19:39.785Z,8.39
2024-02-14T22:22:08.394Z,8.39
2024-02-14T22:24:36.771Z,8.43
2024-02-14T22:27:07.976Z,8.44
2024-02-14T22:29:36.478Z,8.44
2024-02-14T22:32:05.376Z,8.43
2024-02-14T22:34:33.866Z,8.43
2024-02-14T22:37:02.308Z,8.44
2024-02-14T22:39:30.747Z,8.44
2024-02-14T22:41:59.181Z,8.43
2024-02-14T22:44:29.065Z,8.43
2024-02-14T22:46:57.532Z,8.43
2024-02-14T22:49:26.416Z,8.44
2024-02-14T22:51:54.953Z,8.43
2024-02-14T22:54:23.381Z,8.42
2024-02-14T22:56:52.549Z,8.41
2024-02-14T22:59:20.980Z,8.42
2024-02-14T23:01:51.671Z,8.44
2024-02-14T23:04:20.433Z,8.48
2024-02-14T23:06:48.877Z,8.50
2024-02-14T23:09:17.523Z,8.51
2024-02-14T23:11:46.216Z,8.54
2024-02-14T23:14:18.964Z,8.56
2024-02-14T23:16:47.574Z,8.57
2024-02-14T23:19:17.465Z,8.60
2024-02-14T23:21:45.916Z,8.61
2024-02-14T23:24:15.270Z,8.63
2024-02-14T23:26:44.738Z,8.64
2024-02-14T23:29:14.493Z,8.63
2024-02-14T23:31:43.324Z,8.63
2024-02-14T23:34:12.395Z,8.65
2024-02-14T23:36:42.331Z,8.65
2024-02-14T23:39:11.052Z,8.65
2024-02-14T23:41:39.527Z,8.65
2024-02-14T23:46:38.707Z,8.62
2024-02-14T23:49:07.187Z,8.60
2024-02-14T23:51:35.699Z,8.58
2024-02-14T23:54:07.261Z,8.57
2024-02-14T23:56:35.651Z,8.56
2024-02-14T23:59:05.028Z,8.54
